Skip Navigation Links
NOAA logo - Click to go to the NOAA homepage
NOAA's National Weather Service
Alaska Aviation Weather Unit
  NWS logo - Click to go to the NWS homepage
Left Navbar Graphic     02 AKDT = 10 GMT

   
NOAA is celebrating 200 years of science, service, and stewardship. Visit the NOAA 200th celebration Web site to learn more.
USA.gov is the U.S. Government's official Web portal to all Federal, state and local government Web resources and services.
Facebook
NWS on Facebook

AAWU Home :: Display TAF Add Bookmark
SPECI PPIZ 270427Z AUTO 13004KT 10SM SCT002 M24/M28 A3011 RMK AO2 FZRANO
      TSNO=

SPECI PPIZ 270435Z AUTO 12004KT 9SM BKN002 M24/M28 A3011 RMK AO2 FZRANO
      TSNO=

METAR PPIZ 270456Z AUTO 12005KT 1 1/2SM HZ OVC002 M26/M29 A3011 RMK AO2
     SLP200 T12561289 FZRANO TSNO=

SPECI PPIZ 270511Z AUTO 12004KT 3SM BR OVC002 M26/M28 A3011 RMK AO2
      FZRANO TSNO=

SPECI PPIZ 270514Z AUTO 13004KT 1 1/2SM BR OVC002 M26/M28 A3011 RMK
      AO2 VIS 1/2V5 FZRANO TSNO=

SPECI PPIZ 270518Z AUTO 12005KT 3/4SM BR OVC002 M26/M27 A3011 RMK AO2
      FZRANO TSNO=

SPECI PPIZ 270527Z AUTO 11005KT 1/2SM FZFG OVC002 M26/M27 A3011 RMK
      AO2 FZRANO TSNO=

SPECI PPIZ 270533Z AUTO 11005KT 1SM BR OVC002 M26/M28 A3011 RMK AO2
      FZRANO TSNO=

SPECI PPIZ 270546Z AUTO 10005KT 1/2SM FZFG OVC002 M26/M28 A3011 RMK
      AO2 FZRANO TSNO=

METAR PPIZ 270556Z AUTO 09004KT 1/2SM FZFG OVC002 M26/M28 A3011 RMK
      AO2 SLP199 T12561278 11167 21261 56003 FZRANO TSNO=

SPECI PPIZ 270606Z AUTO 08004KT 1/4SM FZFG OVC002 M26/M28 A3011 RMK
      AO2 FZRANO TSNO=

METAR PPIZ 270656Z AUTO 02004KT 1/2SM HZ OVC002 M27/M30 A3011 RMK AO2
      SLP200 T12721300 FZRANO TSNO=

SPECI PPIZ 270711Z AUTO 04005KT 3/4SM HZ OVC002 M28/M31 A3011 RMK AO2
     FZRANO TSNO=

SPECI PPIZ 270731Z AUTO 05006KT 1/2SM HZ OVC002 M28/M32 A3011 RMK AO2
      FZRANO TSNO=

SPECI PPIZ 270740Z AUTO 06006KT 3/4SM HZ OVC002 M29/M32 A3011 RMK AO2
      FZRANO TSNO=

METAR PPIZ 270756Z AUTO 04004KT 3/4SM HZ OVC002 M29/M32 A3011 RMK AO2
      SLP200 T12941322 FZRANO TSNO=

SPECI PPIZ 270813Z AUTO 05005KT 1/2SM HZ OVC002 M29/M32 A3011 RMK AO2
      FZRANO TSNO=

SPECI PPIZ 270829Z AUTO 04005KT 3/4SM HZ OVC002 M29/M32 A3011 RMK AO2
      FZRANO TSNO=

SPECI PPIZ 270841Z AUTO 04005KT 1/2SM HZ OVC002 M29/M32 A3011 RMK AO2
      FZRANO TSNO=

SPECI PPIZ 270854Z AUTO 04006KT 1SM HZ OVC002 M29/M32 A3011 RMK AO2
      411671294 FZRANO TSNO=

METAR PPIZ 270856Z AUTO 04006KT 1 1/4SM HZ OVC002 M29/M32 A3011 RMK AO2
     SLP200 T12941322 411671294 50001 FZRANO TSNO=

SPECI PPIZ 270859Z AUTO 04006KT 4SM HZ OVC002 M29/M32 A3011 RMK AO2
      FZRANO TSNO=

SPECI PPIZ 270930Z AUTO 04007KT 1 3/4SM HZ OVC002 M29/M32 A3010 RMK
      AO2 FZRANO TSNO=

SPECI PPIZ 270938Z AUTO 03005KT 3/4SM HZ OVC002 M29/M32 A3010 RMK AO2
      FZRANO TSNO=

METAR PPIZ 270956Z AUTO 04006KT 1/2SM HZ OVC002 M29/M32 A3010 RMK AO2
     SLP197 T12891322 FZRANO TSNO=

SPECI PPIZ 271025Z AUTO 04004KT 3/4SM HZ OVC002 M29/M32 A3010 RMK AO2
     FZRANO TSNO=


NOAA's National Weather Service
Alaska Aviation Weather Unit
6930 Sand Lake Road
Anchorage, AK 99502-1845
Disclaimer
Credits
Glossary
Privacy Policy
About Us
Career Opportunities
Contact AAWU Internet Services Site last modified: April, 17th 2012